ADDS METAR Data INFO
IDs: Format: Raw Decoded Include TAF

Data at: 1132 UTC 29 May 2017

KCOM 291115Z AUTO 36005KT 10SM OVC080 19/17 A3006 RMK AO2 T01900166
KCOM 291055Z AUTO 36007KT 10SM OVC080 19/17 A3005 RMK AO2 T01860165
KCOM 291035Z AUTO 35007KT 10SM BKN080 18/17 A3005 RMK AO2 T01840165
KCOM 291015Z AUTO 35006KT 10SM CLR 18/16 A3006 RMK AO2 T01820164
KCOM 290955Z AUTO 34006KT 10SM CLR 19/16 A3004 RMK AO2 T01850163
KCOM 290935Z AUTO 34006KT 10SM SCT075 19/17 A3004 RMK AO2 T01860165
KCOM 290915Z AUTO 31003KT 10SM BKN075 19/16 A3005 RMK AO2 T01870164
KCOM 290855Z AUTO 32004KT 10SM OVC075 19/16 A3006 RMK AO2 T01860164
KCOM 290835Z AUTO 31003KT 10SM SCT075 19/17 A3006 RMK AO2 T01860165
KCOM 290815Z AUTO 00000KT 10SM CLR 19/16 A3006 RMK AO2 T01900163
KCOM 290755Z AUTO 00000KT 10SM CLR 19/17 A3006 RMK AO2 T01890165
KCOM 290730Z AUTO 00000KT 10SM CLR 19/16 A3006 RMK AO2 T01930161
KCOM 290715Z AUTO 00000KT 10SM CLR 20/17 A3006 RMK AO2 T01950165
KCOM 290655Z AUTO 01005KT 10SM CLR 20/17 A3004 RMK AO2 T01980166
KCOM 290635Z AUTO 36006KT 10SM CLR 20/17 A3005 RMK AO2 T01950166
KCOM 290615Z AUTO 36005KT 10SM CLR 20/17 A3006 RMK AO2 T02000167
KCOM 290555Z AUTO 36004KT 10SM CLR 20/17 A3007 RMK AO2 T02040168 10243 20204 402850204
KCOM 290535Z AUTO 03005KT 10SM CLR 21/17 A3007 RMK AO2 T02080168
KCOM 290515Z AUTO 02006KT 10SM SCT075 SCT085 21/17 A3006 RMK AO2 T02070167
KCOM 290455Z AUTO 03005KT 10SM SCT070 BKN075 BKN085 21/17 A3006 RMK AO2 LTG DSNT SW T02100166
KCOM 290435Z AUTO 36004KT 10SM SCT070 SCT085 21/17 A3007 RMK AO2 T02100165
KCOM 290415Z AUTO 08003KT 10SM SCT070 BKN080 21/16 A3007 RMK AO2 T02120162
KCOM 290355Z AUTO 07004KT 10SM SCT070 BKN080 22/16 A3006 RMK AO2 T02160159
KCOM 290335Z AUTO 07003KT 10SM SCT060 BKN070 22/16 A3007 RMK AO2 LTG DSNT S T02180158
KCOM 290315Z AUTO 11003KT 10SM BKN060 OVC070 22/16 A3007 RMK AO2 LTG DSNT SE AND S T02200158
KCOM 290255Z AUTO 00000KT 10SM SCT050 22/16 A3004 RMK AO2 LTG DSNT S AND SW T02200160
KCOM 290235Z AUTO 33003KT 10SM CLR 22/16 A3003 RMK AO2 LTG DSNT S AND SW T02200156
KCOM 290215Z AUTO 00000KT 10SM CLR 22/16 A3002 RMK AO2 LTG DSNT SE AND S T02200155
KCOM 290155Z AUTO 00000KT 10SM CLR 22/15 A3002 RMK AO2 LTG DSNT SE AND SW T02220154
KCOM 290135Z AUTO 04005KT 10SM CLR 23/15 A2998 RMK AO2 LTG DSNT SE AND SW T02280153
KCOM 290115Z AUTO 01006KT 10SM CLR 23/15 A2999 RMK AO2 LTG DSNT SE AND S T02320151
KCOM 290055Z AUTO 04008KT 10SM CLR 24/15 A2996 RMK AO2 LTG DSNT SE T02360150
KCOM 290035Z AUTO 34007KT 10SM CLR 24/15 A2999 RMK AO2 LTG DSNT SE AND W T02370147
KCOM 290015Z AUTO 05006KT 10SM CLR 24/15 A2997 RMK AO2 LTG DSNT SE AND NW T02400154
KCOM 282355Z AUTO 05009KT 10SM VCTS CLR 24/15 A2999 RMK AO2 LTG DSNT SE S AND NW T02430152 10285 20243
KCOM 282335Z AUTO 05012KT 10SM CLR 25/15 A2997 RMK AO2 LTG DSNT SE THRU W T02450153
KCOM 282315Z AUTO 05011KT 10SM CLR 25/15 A2999 RMK AO2 LTG DSNT SE THRU NW T02490154
KCOM 282255Z AUTO 06015G20KT 10SM CLR 26/16 A2998 RMK AO2 LTG DSNT S AND NW T02590155
KCOM 282235Z AUTO 04015G24KT 10SM SCT035 26/15 A2999 RMK AO2 LTG DSNT ALQS T02630153
KCOM 282215Z AUTO 03013G25KT 10SM BKN033 26/16 A3002 RMK AO2 LTG DSNT ALQS T02590155
KCOM 282155Z AUTO 02017G24KT 10SM SCT033 26/16 A2999 RMK AO2 LTG DSNT NE T02580162
KCOM 282135Z AUTO 03014G20KT 10SM SCT035 26/16 A2999 RMK AO2 LTG DSNT N T02600160
KCOM 282115Z AUTO 02015G20KT 10SM BKN035 26/16 A3000 RMK AO2 LTG DSNT N AND NW T02620161
KCOM 282055Z AUTO 01016G22KT 10SM SCT035 26/16 A3001 RMK AO2 LTG DSNT N AND NW T02630161
KCOM 282035Z AUTO 03016G19KT 10SM SCT035 26/16 A3001 RMK AO2 LTG DSNT NW T02610163
KCOM 282015Z AUTO 02017G22KT 10SM BKN033 27/16 A3001 RMK AO2 T02670164
KCOM 281955Z AUTO 02016G28KT 10SM BKN033 27/17 A3000 RMK AO2 T02740167
KCOM 281935Z AUTO 35016G26KT 10SM SCT033 28/17 A3001 RMK AO2 LTG DSNT NE T02840168
KCOM 281915Z AUTO 02016G23KT 10SM BKN031 28/17 A3001 RMK AO2 LTG DSNT NE T02790170
KCOM 281855Z AUTO 02016G22KT 10SM BKN029 BKN035 BKN046 27/17 A3003 RMK AO2 T02730170
KCOM 281835Z AUTO 36016KT 10SM BKN027 BKN033 OVC046 28/17 A3003 RMK AO2 LTG DSNT N AND NE T02750171
KCOM 281815Z AUTO 01015G20KT 10SM OVC027 26/17 A3003 RMK AO2 T02630170
KCOM 281755Z AUTO 36014G20KT 10SM OVC025 25/17 A3003 RMK AO2 T02510169 10253 20220
KCOM 281735Z AUTO 02014KT 10SM OVC025 25/17 A3003 RMK AO2 T02490167
KCOM 281715Z AUTO 02013G20KT 10SM OVC025 25/17 A3003 RMK AO2 T02480168
KCOM 281655Z AUTO 02013KT 10SM OVC025 25/17 A3003 RMK AO2 T02450168
KCOM 281635Z AUTO 02013KT 10SM OVC023 24/17 A3003 RMK AO2 T02440167
KCOM 281615Z AUTO 02013KT 10SM OVC023 25/17 A3001 RMK AO2 T02460166
KCOM 281555Z AUTO 03013KT 10SM OVC023 25/17 A3001 RMK AO2 T02450166
KCOM 281535Z AUTO 03013G20KT 10SM BKN023 25/17 A3000 RMK AO2 T02490167
KCOM 281515Z AUTO 02016G21KT 10SM SCT023 25/17 A2999 RMK AO2 T02490165
KCOM 281455Z AUTO 02018G22KT 10SM SCT023 24/16 A2998 RMK AO2 T02400164
KCOM 281435Z AUTO 03017G21KT 10SM BKN023 24/16 A2999 RMK AO2 T02390162
KCOM 281410Z AUTO 02017G20KT 10SM SCT023 24/16 A2999 RMK AO2 T02350159
KCOM 281355Z AUTO 02015G21KT 10SM SCT023 23/16 A2999 RMK AO2 T02330158
KCOM 281335Z AUTO 01013KT 10SM BKN023 23/16 A2998 RMK AO2 T02280158
KCOM 281315Z AUTO 02012G22KT 10SM BKN023 23/16 A2997 RMK AO2 T02250156
KCOM 281250Z AUTO 01013G17KT 10SM CLR 23/16 A2996 RMK AO2 T02260157
KCOM 281235Z AUTO 01012G16KT 10SM CLR 23/16 A2996 RMK AO2 T02250157
KCOM 281215Z AUTO 01011KT 10SM CLR 22/16 A2995 RMK AO2 T02220157
KCOM 281155Z AUTO 36011G19KT 10SM CLR 22/16 A2994 RMK AO2 T02200156 10276 20220
KCOM 281135Z AUTO 36013G17KT 10SM CLR 22/16 A2993 RMK AO2 T02220157
KCOM 281115Z AUTO 36013G17KT 10SM CLR 23/16 A2993 RMK AO2 T02250160
KCOM 281055Z AUTO 36012G19KT 10SM CLR 23/16 A2992 RMK AO2 T02300161
KCOM 281035Z AUTO 35015G26KT 10SM BKN037 24/17 A2991 RMK AO2 T02350166
KCOM 281015Z AUTO 36014G22KT 10SM BKN037 BKN043 OVC050 24/18 A2990 RMK AO2 LTG DSNT E T02420176
KCOM 280955Z AUTO 34014G24KT 10SM BKN035 BKN041 OVC050 25/18 A2988 RMK AO2 T02510175
KCOM 280935Z AUTO 29006KT 10SM BKN041 BKN050 28/21 A2986 RMK AO2 T02750205
KCOM 280915Z AUTO 31006G25KT 10SM CLR 27/20 A2986 RMK AO2 T02730203
KCOM 280855Z AUTO 23006KT 10SM CLR 25/20 A2982 RMK AO2 T02490200
KCOM 280835Z AUTO 19008KT 10SM CLR 25/20 A2981 RMK AO2 T02480200
KCOM 280815Z AUTO 19005KT 10SM CLR 25/20 A2982 RMK AO2 T02450200
KCOM 280755Z AUTO 18005KT 10SM CLR 25/20 A2983 RMK AO2 T02480200
KCOM 280735Z AUTO 20006KT 10SM CLR 26/20 A2982 RMK AO2 T02550200
KCOM 280715Z AUTO 24004KT 10SM CLR 26/20 A2983 RMK AO2 T02600200
KCOM 280655Z AUTO 22006KT 10SM CLR 26/20 A2983 RMK AO2 T02600200
KCOM 280635Z AUTO 22003KT 10SM CLR 26/20 A2984 RMK AO2 T02600202
KCOM 280615Z AUTO 23004KT 10SM CLR 26/20 A2984 RMK AO2 T02630202
KCOM 280555Z AUTO 22004KT 10SM CLR 27/20 A2985 RMK AO2 T02690202 10350 20267 403740230
KCOM 280535Z AUTO 20005KT 10SM CLR 27/20 A2984 RMK AO2 T02680202
KCOM 280515Z AUTO 21004KT 10SM CLR 28/20 A2985 RMK AO2 T02780203
KCOM 280455Z AUTO 21004KT 10SM CLR 28/21 A2985 RMK AO2 T02830205
KCOM 280435Z AUTO 21006KT 10SM CLR 29/21 A2985 RMK AO2 T02860205
KCOM 280410Z AUTO 20006KT 10SM CLR 29/21 A2984 RMK AO2 T02890206
KCOM 280355Z AUTO 19007KT 10SM CLR 29/21 A2983 RMK AO2 T02900207
KCOM 280335Z AUTO 19007KT 10SM CLR 29/21 A2983 RMK AO2 T02920208
KCOM 280315Z AUTO 18006KT 10SM CLR 30/21 A2982 RMK AO2 T02960209
KCOM 280255Z AUTO 18007KT 10SM CLR 30/21 A2981 RMK AO2 T02990210
KCOM 280235Z AUTO 18008KT 10SM CLR 31/21 A2980 RMK AO2 T03050211
KCOM 280215Z AUTO 18008KT 10SM CLR 31/22 A2980 RMK AO2 T03100215
KCOM 280155Z AUTO 18009KT 10SM CLR 32/22 A2979 RMK AO2 T03150215
KCOM 280135Z AUTO 17009KT 10SM CLR 32/22 A2979 RMK AO2 T03210215
KCOM 280115Z AUTO 17010KT 10SM CLR 33/21 A2978 RMK AO2 T03280213
KCOM 280055Z AUTO 18009KT 10SM CLR 34/21 A2978 RMK AO2 T03350213
KCOM 280035Z AUTO 17011G18KT 10SM CLR 34/21 A2977 RMK AO2 T03400212
KCOM 280015Z AUTO 17013G18KT 10SM CLR 35/22 A2977 RMK AO2 T03450215
KCOM 272355Z AUTO 17011G17KT 10SM CLR 35/22 A2977 RMK AO2 T03500217 10374 20339
KCOM 272335Z AUTO 17012G19KT 10SM CLR 35/22 A2978 RMK AO2 T03540218


Page loaded:  11:32 UTC  |   04:32 AM Pacific  |   05:32 AM Mountain  |   06:32 AM Central  |   07:32 AM Eastern

 

ADVISORIES

FORECASTS

FORECASTS

OBSERVATIONS

USER TOOLS

ABOUT US